Terminal Aerodrome Forecast
Issued by NWS Atlanta, GA

Home | Current Version | Previous Version | Text Only | Print | Product List | Glossary On
Versions: 1 2 3 4 5 6 7 8 9 10 11 12 13 14 15 16 17 18 19 20 21 22 23 24
667
FTUS42 KFFC 060543
TAFMCN
TAF
KMCN 060543Z 0606/0706 32007KT P6SM SKC
     FM061300 32012G22KT P6SM SKC
     FM070000 32012KT P6SM SKC
     FM070500 32009KT P6SM SKC=

USA.gov is the U.S. government's official web portal to all federal, state and local government web resources and services.